VE18 weather

Aviosuperficie "Skydive Venice"
San Stino di Livenza (VE), Veneto, Italy

Public forecast

Using degrees Celsius for public forecast. Weather courtesy of forecast.io.

Closest aviation weather report (METAR) to Aviosuperficie "Skydive Venice"

Closest report is Rivolto Air Base, 20.6 nm (38.1 km) NE. Retrieved 2020/08/06 11:55 UTC (1 hour ago):

LIPI 061155Z 21003KT 9999 SCT090 28/16 Q1016 RMK SCT VIS MIN 9999 WIND THR06 21002KT WIND THR24 20003KT BLU

Closest aviation forecast (TAF) to Aviosuperficie "Skydive Venice"

Forecast is more than 12 hours old.

Closest forecast is Rivolto Air Base, 20.6 nm (38.1 km) NE. Retrieved 2020/01/23 12:24 UTC (7 months ago):

TAF TAF LIPI 231100Z 2312/2324 06010KT CAVOK